createdAt,value
2023-11-07T00:01:44.682Z,96674.38
2023-11-07T00:04:13.746Z,96676.75
2023-11-07T00:06:43.781Z,96672.06
2023-11-07T00:09:13.488Z,96669.78
2023-11-07T00:11:41.999Z,96670.22
2023-11-07T00:14:10.482Z,96669.59
2023-11-07T00:16:38.962Z,96668.53
2023-11-07T00:19:08.842Z,96664.88
2023-11-07T00:21:38.238Z,96665.53
2023-11-07T00:24:09.482Z,96672.47
2023-11-07T00:26:38.259Z,96667.09
2023-11-07T00:29:07.921Z,96670.09
2023-11-07T00:31:36.535Z,96673.09
2023-11-07T00:34:05.648Z,96674.22
2023-11-07T00:36:34.512Z,96674.06
2023-11-07T00:39:03.376Z,96675.88
2023-11-07T00:41:33.577Z,96677.88
2023-11-07T00:44:03.117Z,96687.31
2023-11-07T00:46:31.600Z,96690.81
2023-11-07T00:49:00.529Z,96694.56
2023-11-07T00:51:29.114Z,96706.22
2023-11-07T00:53:57.572Z,96705.91
2023-11-07T00:56:26.219Z,96697.13
2023-11-07T00:58:56.073Z,96710.88
2023-11-07T01:01:24.613Z,96718.44
2023-11-07T01:03:53.264Z,96714.16
2023-11-07T01:06:22.275Z,96713.75
2023-11-07T01:08:50.735Z,96717.59
2023-11-07T01:11:20.822Z,96716.13
2023-11-07T01:13:49.583Z,96720.75
2023-11-07T01:16:19.765Z,96717.50
2023-11-07T01:18:48.784Z,96721.34
2023-11-07T01:21:17.450Z,96717.81
2023-11-07T01:23:45.958Z,96716.81
2023-11-07T01:26:14.378Z,96719.91
2023-11-07T01:28:43.608Z,96719.47
2023-11-07T01:31:12.157Z,96718.19
2023-11-07T01:33:42.472Z,96717.06
2023-11-07T01:36:12.493Z,96720.91
2023-11-07T01:38:40.980Z,96720.78
2023-11-07T01:41:09.552Z,96725.09
2023-11-07T01:43:38.096Z,96721.41
2023-11-07T01:46:07.998Z,96725.06
2023-11-07T01:48:37.633Z,96728.22
2023-11-07T01:51:10.618Z,96721.63
2023-11-07T01:53:39.212Z,96728.19
2023-11-07T01:56:09.579Z,96722.59
2023-11-07T01:58:38.980Z,96721.59
2023-11-07T02:01:07.671Z,96724.59
2023-11-07T02:03:38.174Z,96723.53
2023-11-07T02:06:09.747Z,96719.47
2023-11-07T02:08:38.841Z,96722.31
2023-11-07T02:11:07.781Z,96715.38
2023-11-07T02:13:38.025Z,96710.38
2023-11-07T02:16:07.698Z,96711.84
2023-11-07T02:18:36.312Z,96706.53
2023-11-07T02:21:05.218Z,96716.91
2023-11-07T02:23:35.778Z,96711.84
2023-11-07T02:26:04.585Z,96716.78
2023-11-07T02:28:33.742Z,96704.38
2023-11-07T02:31:02.172Z,96711.44
2023-11-07T02:33:31.238Z,96702.28
2023-11-07T02:36:00.287Z,96697.22
2023-11-07T02:38:30.322Z,96706.72
2023-11-07T02:41:00.363Z,96711.13
2023-11-07T02:43:29.213Z,96697.66
2023-11-07T02:45:57.757Z,96703.63
2023-11-07T02:48:26.248Z,96700.38
2023-11-07T02:50:54.962Z,96697.88
2023-11-07T02:53:23.886Z,96703.06
2023-11-07T02:55:53.442Z,96706.59
2023-11-07T02:58:25.216Z,96706.63
2023-11-07T03:00:53.827Z,96695.34
2023-11-07T03:03:22.808Z,96696.44
2023-11-07T03:05:51.318Z,96697.53
2023-11-07T03:08:20.063Z,96703.75
2023-11-07T03:10:48.435Z,96702.22
2023-11-07T03:13:19.374Z,96692.31
2023-11-07T03:15:49.361Z,96701.81
2023-11-07T03:18:18.044Z,96703.44
2023-11-07T03:20:46.744Z,96698.84
2023-11-07T03:23:15.168Z,96704.50
2023-11-07T03:25:43.562Z,96706.09
2023-11-07T03:28:12.993Z,96706.88
2023-11-07T03:30:42.527Z,96703.63
2023-11-07T03:33:12.465Z,96701.19
2023-11-07T03:35:40.968Z,96708.28
2023-11-07T03:38:09.427Z,96711.50
2023-11-07T03:40:37.960Z,96703.69
2023-11-07T03:43:06.882Z,96708.34
2023-11-07T03:45:35.299Z,96705.97
2023-11-07T03:48:03.858Z,96724.66
2023-11-07T03:50:33.794Z,96719.78
2023-11-07T03:53:02.182Z,96724.38
2023-11-07T03:55:30.565Z,96708.75
2023-11-07T03:57:58.941Z,96709.09
2023-11-07T04:00:27.318Z,96715.03
2023-11-07T04:02:55.999Z,96725.28
2023-11-07T04:05:24.618Z,96723.94
2023-11-07T04:07:54.396Z,96729.88
2023-11-07T04:10:22.981Z,96733.38
2023-11-07T04:12:52.097Z,96726.91
2023-11-07T04:15:23.671Z,96736.38
2023-11-07T04:17:53.949Z,96736.66
2023-11-07T04:20:24.237Z,96738.03
2023-11-07T04:22:55.652Z,96738.81
2023-11-07T04:25:24.094Z,96744.78
2023-11-07T04:27:53.053Z,96745.84
2023-11-07T04:30:21.667Z,96749.38
2023-11-07T04:32:50.161Z,96750.72
2023-11-07T04:35:18.769Z,96753.22
2023-11-07T04:37:47.276Z,96740.59
2023-11-07T04:40:20.280Z,96741.91
2023-11-07T04:42:49.067Z,96745.44
2023-11-07T04:45:20.445Z,96744.31
2023-11-07T04:47:50.663Z,96744.34
2023-11-07T04:50:19.333Z,96745.97
2023-11-07T04:52:48.498Z,96739.25
2023-11-07T04:55:19.523Z,96736.31
2023-11-07T04:57:47.855Z,96746.03
2023-11-07T05:00:17.184Z,96749.31
2023-11-07T05:02:47.279Z,96742.03
2023-11-07T05:05:15.889Z,96747.19
2023-11-07T05:07:46.410Z,96744.47
2023-11-07T05:10:15.545Z,96743.31
2023-11-07T05:12:45.344Z,96752.41
2023-11-07T05:15:14.082Z,96752.31
2023-11-07T05:17:42.663Z,96746.84
2023-11-07T05:20:15.130Z,96750.53
2023-11-07T05:22:43.924Z,96747.47
2023-11-07T05:25:12.994Z,96748.72
2023-11-07T05:27:41.922Z,96754.00
2023-11-07T05:30:15.659Z,96745.00
2023-11-07T05:32:48.191Z,96754.63
2023-11-07T05:35:16.839Z,96747.59
2023-11-07T05:37:47.127Z,96744.06
2023-11-07T05:40:17.031Z,96739.25
2023-11-07T05:42:45.660Z,96738.50
2023-11-07T05:45:16.297Z,96748.75
2023-11-07T05:47:45.647Z,96737.03
2023-11-07T05:50:14.320Z,96732.72
2023-11-07T05:52:42.951Z,96731.38
2023-11-07T05:55:13.174Z,96732.72
2023-11-07T05:57:41.825Z,96733.75
2023-11-07T06:00:15.086Z,96741.28
2023-11-07T06:02:44.966Z,96738.41
2023-11-07T06:05:13.481Z,96733.63
2023-11-07T06:07:41.932Z,96728.53
2023-11-07T06:10:10.803Z,96736.03
2023-11-07T06:12:39.613Z,96741.06
2023-11-07T06:15:11.899Z,96739.94
2023-11-07T06:17:40.385Z,96757.69
2023-11-07T06:20:11.589Z,96758.13
2023-11-07T06:22:39.976Z,96757.84
2023-11-07T06:25:11.246Z,96760.59
2023-11-07T06:27:39.588Z,96752.81
2023-11-07T06:30:10.774Z,96758.94
2023-11-07T06:32:40.186Z,96760.13
2023-11-07T06:35:11.580Z,96764.78
2023-11-07T06:37:40.696Z,96759.69
2023-11-07T06:40:17.351Z,96766.47
2023-11-07T06:42:48.239Z,96768.94
2023-11-07T06:45:17.372Z,96768.38
2023-11-07T06:47:47.839Z,96769.66
2023-11-07T06:50:18.099Z,96776.38
2023-11-07T06:52:53.314Z,96777.72
2023-11-07T06:55:26.081Z,96778.56
2023-11-07T06:57:56.699Z,96778.06
2023-11-07T07:00:27.393Z,96783.19
2023-11-07T07:02:58.444Z,96787.47
2023-11-07T07:05:29.392Z,96790.69
2023-11-07T07:07:59.228Z,96797.41
2023-11-07T07:10:27.612Z,96792.50
2023-11-07T07:12:56.106Z,96791.53
2023-11-07T07:15:25.119Z,96787.69
2023-11-07T07:17:53.804Z,96791.38
2023-11-07T07:20:22.384Z,96790.22
2023-11-07T07:22:54.311Z,96791.84
2023-11-07T07:25:28.166Z,96795.53
2023-11-07T07:27:56.848Z,96800.44
2023-11-07T07:30:27.692Z,96805.78
2023-11-07T07:32:57.078Z,96799.97
2023-11-07T07:35:30.792Z,96798.75
2023-11-07T07:38:04.406Z,96802.16
2023-11-07T07:40:33.522Z,96798.75
2023-11-07T07:43:10.914Z,96800.81
2023-11-07T07:45:44.034Z,96804.25
2023-11-07T07:48:13.251Z,96803.16
2023-11-07T07:50:44.200Z,96788.00
2023-11-07T07:53:16.364Z,96797.22
2023-11-07T07:55:45.885Z,96791.81
2023-11-07T07:58:20.362Z,96789.59
2023-11-07T08:00:50.962Z,96783.19
2023-11-07T08:03:19.963Z,96790.13
2023-11-07T08:05:48.874Z,96790.81
2023-11-07T08:08:19.201Z,96784.06
2023-11-07T08:10:49.917Z,96790.13
2023-11-07T08:13:19.943Z,96791.97
2023-11-07T08:15:51.304Z,96785.84
2023-11-07T08:18:20.374Z,96793.84
2023-11-07T08:20:51.535Z,96800.72
2023-11-07T08:23:22.172Z,96804.09
2023-11-07T08:25:51.471Z,96799.13
2023-11-07T08:28:19.944Z,96810.69
2023-11-07T08:30:48.337Z,96809.41
2023-11-07T08:33:16.934Z,96804.19
2023-11-07T08:35:45.479Z,96809.16
2023-11-07T08:38:14.022Z,96806.22
2023-11-07T08:40:43.701Z,96814.31
2023-11-07T08:43:13.758Z,96810.09
2023-11-07T08:45:42.435Z,96815.81
2023-11-07T08:48:11.591Z,96802.78
2023-11-07T08:50:40.382Z,96814.69
2023-11-07T08:53:08.823Z,96808.22
2023-11-07T08:55:37.782Z,96805.84
2023-11-07T08:58:07.813Z,96802.44
2023-11-07T09:00:36.220Z,96800.53
2023-11-07T09:03:05.431Z,96801.53
2023-11-07T09:05:34.095Z,96799.81
2023-11-07T09:08:05.670Z,96800.72
2023-11-07T09:10:34.095Z,96803.50
2023-11-07T09:13:04.094Z,96807.22
2023-11-07T09:15:33.868Z,96809.81
2023-11-07T09:18:02.349Z,96817.69
2023-11-07T09:20:30.983Z,96819.19
2023-11-07T09:22:59.328Z,96821.03
2023-11-07T09:25:27.748Z,96824.72
2023-11-07T09:27:56.097Z,96822.22
2023-11-07T09:30:24.502Z,96821.44
2023-11-07T09:32:54.730Z,96824.22
2023-11-07T09:35:24.125Z,96829.72
2023-11-07T09:37:52.600Z,96824.47
2023-11-07T09:40:24.401Z,96819.94
2023-11-07T09:42:55.851Z,96816.53
2023-11-07T09:45:25.221Z,96810.69
2023-11-07T09:47:57.421Z,96832.19
2023-11-07T09:50:26.425Z,96825.84
2023-11-07T09:52:56.293Z,96827.88
2023-11-07T09:55:31.061Z,96818.56
2023-11-07T09:58:15.039Z,96804.66
2023-11-07T10:00:46.701Z,96808.09
2023-11-07T10:03:18.028Z,96814.84
2023-11-07T10:05:49.655Z,96815.97
2023-11-07T10:08:18.792Z,96817.09
2023-11-07T10:11:11.720Z,96811.31
2023-11-07T10:13:41.215Z,96804.69
2023-11-07T10:18:51.503Z,96801.00
2023-11-07T10:21:33.066Z,96798.31
2023-11-07T10:24:01.818Z,96802.16
2023-11-07T10:26:31.448Z,96787.19
2023-11-07T10:29:17.851Z,96785.63
2023-11-07T10:32:02.047Z,96782.25
2023-11-07T10:34:32.822Z,96790.59
2023-11-07T10:37:02.099Z,96796.53
2023-11-07T10:39:31.301Z,96789.16
2023-11-07T10:42:17.991Z,96781.94
2023-11-07T10:44:49.575Z,96782.72
2023-11-07T10:47:21.483Z,96776.16
2023-11-07T10:49:57.367Z,96771.47
2023-11-07T10:52:26.006Z,96773.56
2023-11-07T10:54:55.166Z,96767.28
2023-11-07T10:57:28.143Z,96766.91
2023-11-07T11:00:06.925Z,96760.06
2023-11-07T11:02:35.856Z,96763.16
2023-11-07T11:05:12.238Z,96753.63
2023-11-07T11:07:50.684Z,96753.97
2023-11-07T11:10:23.327Z,96743.97
2023-11-07T11:12:52.977Z,96744.66
2023-11-07T11:15:21.811Z,96741.78
2023-11-07T11:17:59.140Z,96739.03
2023-11-07T11:20:45.557Z,96734.47
2023-11-07T11:23:30.856Z,96743.19
2023-11-07T11:26:20.150Z,96747.91
2023-11-07T11:28:48.750Z,96732.50
2023-11-07T11:31:22.003Z,96733.50
2023-11-07T11:33:52.598Z,96726.75
2023-11-07T11:36:40.716Z,96725.78
2023-11-07T11:39:47.584Z,96728.13
2023-11-07T11:42:17.477Z,96735.28
2023-11-07T11:44:46.469Z,96730.69
2023-11-07T11:47:53.167Z,96735.78
2023-11-07T11:50:22.458Z,96728.56
2023-11-07T11:52:55.378Z,96728.31
2023-11-07T11:55:23.764Z,96735.44
2023-11-07T11:58:20.517Z,96734.13
2023-11-07T12:00:53.211Z,96734.56
2023-11-07T12:03:22.204Z,96733.34
2023-11-07T12:06:05.308Z,96731.13
2023-11-07T12:08:42.433Z,96734.13
2023-11-07T12:11:12.014Z,96732.66
2023-11-07T12:13:42.193Z,96724.72
2023-11-07T12:16:19.846Z,96717.56
2023-11-07T12:18:51.930Z,96727.22
2023-11-07T12:21:29.200Z,96731.34
2023-11-07T12:24:02.749Z,96718.25
2023-11-07T12:26:42.870Z,96720.56
2023-11-07T12:29:11.439Z,96721.56
2023-11-07T12:31:41.295Z,96715.38
2023-11-07T12:34:10.510Z,96715.03
2023-11-07T12:36:41.582Z,96721.81
2023-11-07T12:39:13.591Z,96712.72
2023-11-07T12:41:42.280Z,96717.75
2023-11-07T12:44:17.475Z,96724.38
2023-11-07T12:46:47.168Z,96733.50
2023-11-07T12:49:19.680Z,96719.22
2023-11-07T12:51:48.769Z,96723.00
2023-11-07T12:54:26.908Z,96728.13
2023-11-07T12:56:55.601Z,96723.09
2023-11-07T12:59:24.141Z,96724.69
2023-11-07T13:01:55.602Z,96717.88
2023-11-07T13:04:24.288Z,96718.06
2023-11-07T13:06:55.532Z,96712.25
2023-11-07T13:09:32.025Z,96706.00
2023-11-07T13:12:11.577Z,96709.38
2023-11-07T13:14:41.315Z,96704.22
2023-11-07T13:17:12.868Z,96701.81
2023-11-07T13:19:41.521Z,96704.28
2023-11-07T13:22:11.135Z,96699.47
2023-11-07T13:24:41.143Z,96706.47
2023-11-07T13:27:09.668Z,96707.00
2023-11-07T13:29:38.033Z,96700.94
2023-11-07T13:32:07.553Z,96704.34
2023-11-07T13:34:36.588Z,96699.53
2023-11-07T13:37:06.389Z,96693.06
2023-11-07T13:39:34.727Z,96693.53
2023-11-07T13:42:05.853Z,96693.13
2023-11-07T13:44:35.406Z,96687.31
2023-11-07T13:47:04.160Z,96689.63
2023-11-07T13:49:33.665Z,96690.50
2023-11-07T13:52:03.435Z,96685.13
2023-11-07T13:54:31.972Z,96678.09
2023-11-07T13:57:00.909Z,96670.69
2023-11-07T13:59:32.405Z,96679.91
2023-11-07T14:02:00.999Z,96678.38
2023-11-07T14:04:29.523Z,96674.44
2023-11-07T14:06:57.932Z,96682.25
2023-11-07T14:09:26.343Z,96683.13
2023-11-07T14:11:54.774Z,96686.25
2023-11-07T14:14:23.492Z,96686.31
2023-11-07T14:16:54.574Z,96680.25
2023-11-07T14:19:23.523Z,96678.72
2023-11-07T14:21:52.029Z,96675.56
2023-11-07T14:24:20.453Z,96677.97
2023-11-07T14:26:49.096Z,96677.78
2023-11-07T14:29:34.106Z,96670.69
2023-11-07T14:32:09.781Z,96662.44
2023-11-07T14:34:38.286Z,96673.25
2023-11-07T14:37:06.883Z,96669.59
2023-11-07T14:39:35.628Z,96672.19
2023-11-07T14:42:07.538Z,96675.25
2023-11-07T14:44:35.903Z,96677.16
2023-11-07T14:47:04.510Z,96684.75
2023-11-07T14:49:35.179Z,96680.28
2023-11-07T14:52:07.926Z,96689.59
2023-11-07T14:54:37.604Z,96686.38
2023-11-07T14:57:09.538Z,96702.19
2023-11-07T14:59:38.386Z,96702.84
2023-11-07T15:02:14.705Z,96700.69
2023-11-07T15:04:52.367Z,96715.94
2023-11-07T15:07:20.828Z,96708.25
2023-11-07T15:09:49.146Z,96718.50
2023-11-07T15:12:17.636Z,96733.22
2023-11-07T15:14:47.208Z,96723.91
2023-11-07T15:17:15.632Z,96736.19
2023-11-07T15:19:44.070Z,96738.91
2023-11-07T15:22:14.004Z,96746.78
2023-11-07T15:24:42.849Z,96736.50
2023-11-07T15:27:11.311Z,96735.66
2023-11-07T15:29:39.777Z,96742.81
2023-11-07T15:32:11.780Z,96742.63
2023-11-07T15:34:40.245Z,96731.25
2023-11-07T15:37:08.796Z,96738.28
2023-11-07T15:39:38.565Z,96717.66
2023-11-07T15:42:08.836Z,96725.81
2023-11-07T15:44:37.360Z,96724.81
2023-11-07T15:47:06.242Z,96723.03
2023-11-07T15:49:34.776Z,96718.72
2023-11-07T15:52:03.491Z,96717.59
2023-11-07T15:54:32.865Z,96721.75
2023-11-07T15:57:02.638Z,96716.91
2023-11-07T15:59:31.584Z,96715.31
2023-11-07T16:02:00.457Z,96711.78
2023-11-07T16:04:29.274Z,96724.06
2023-11-07T16:06:57.894Z,96724.69
2023-11-07T16:09:26.616Z,96718.03
2023-11-07T16:11:55.123Z,96719.22
2023-11-07T16:14:25.176Z,96721.78
2023-11-07T16:16:53.558Z,96717.53
2023-11-07T16:19:22.796Z,96722.16
2023-11-07T16:21:55.548Z,96724.56
2023-11-07T16:24:24.513Z,96722.59
2023-11-07T16:26:53.147Z,96724.03
2023-11-07T16:29:23.232Z,96720.69
2023-11-07T16:31:53.689Z,96718.91
2023-11-07T16:34:23.358Z,96721.75
2023-11-07T16:36:52.609Z,96725.88
2023-11-07T16:39:21.431Z,96725.75
2023-11-07T16:41:50.257Z,96731.19
2023-11-07T16:44:18.842Z,96728.28
2023-11-07T16:46:47.464Z,96735.66
2023-11-07T16:49:18.275Z,96731.56
2023-11-07T16:51:46.701Z,96744.44
2023-11-07T16:54:15.109Z,96751.09
2023-11-07T16:56:43.550Z,96757.81
2023-11-07T16:59:12.645Z,96758.50
2023-11-07T17:01:41.106Z,96773.53
2023-11-07T17:04:10.391Z,96775.75
2023-11-07T17:06:40.673Z,96782.38
2023-11-07T17:09:10.443Z,96784.91
2023-11-07T17:11:39.678Z,96777.22
2023-11-07T17:14:11.038Z,96777.84
2023-11-07T17:16:40.174Z,96780.44
2023-11-07T17:19:08.844Z,96788.09
2023-11-07T17:21:37.249Z,96784.91
2023-11-07T17:24:08.495Z,96779.88
2023-11-07T17:26:37.171Z,96788.84
2023-11-07T17:29:07.953Z,96802.75
2023-11-07T17:31:36.462Z,96795.69
2023-11-07T17:34:08.552Z,96798.19
2023-11-07T17:36:37.428Z,96800.41
2023-11-07T17:39:15.019Z,96802.00
2023-11-07T17:41:45.843Z,96802.69
2023-11-07T17:44:15.764Z,96797.88
2023-11-07T17:46:45.992Z,96796.75
2023-11-07T17:49:17.201Z,96804.13
2023-11-07T17:51:46.387Z,96811.38
2023-11-07T17:54:17.325Z,96807.63
2023-11-07T17:56:45.867Z,96809.75
2023-11-07T17:59:14.474Z,96810.59
2023-11-07T18:01:43.191Z,96811.50
2023-11-07T18:04:11.741Z,96813.03
2023-11-07T18:06:42.340Z,96820.09
2023-11-07T18:09:13.996Z,96824.41
2023-11-07T18:11:46.309Z,96830.16
2023-11-07T18:14:15.434Z,96828.84
2023-11-07T18:16:44.629Z,96823.41
2023-11-07T18:19:13.422Z,96829.44
2023-11-07T18:21:44.866Z,96845.66
2023-11-07T18:24:13.494Z,96847.06
2023-11-07T18:26:49.492Z,96840.31
2023-11-07T18:29:18.178Z,96843.75
2023-11-07T18:31:47.072Z,96841.94
2023-11-07T18:34:22.633Z,96838.72
2023-11-07T18:37:01.056Z,96843.03
2023-11-07T18:39:30.420Z,96842.25
2023-11-07T18:42:01.133Z,96850.41
2023-11-07T18:44:35.357Z,96856.63
2023-11-07T18:47:04.357Z,96856.53
2023-11-07T18:49:33.597Z,96859.25
2023-11-07T18:52:03.035Z,96859.34
2023-11-07T18:54:31.806Z,96856.03
2023-11-07T18:57:02.841Z,96858.16
2023-11-07T18:59:36.964Z,96862.06
2023-11-07T19:02:07.826Z,96867.41
2023-11-07T19:04:38.384Z,96869.63
2023-11-07T19:07:08.176Z,96869.00
2023-11-07T19:09:37.568Z,96875.13
2023-11-07T19:12:08.534Z,96876.13
2023-11-07T19:14:39.785Z,96873.44
2023-11-07T19:17:08.853Z,96882.97
2023-11-07T19:19:38.065Z,96888.31
2023-11-07T19:22:06.682Z,96890.22
2023-11-07T19:24:35.394Z,96898.97
2023-11-07T19:27:04.699Z,96894.97
2023-11-07T19:29:34.862Z,96902.09
2023-11-07T19:32:04.044Z,96909.66
2023-11-07T19:34:34.575Z,96910.66
2023-11-07T19:37:03.703Z,96905.84
2023-11-07T19:39:35.573Z,96906.63
2023-11-07T19:42:05.070Z,96914.69
2023-11-07T19:44:36.283Z,96910.75
2023-11-07T19:47:05.117Z,96918.19
2023-11-07T19:49:33.893Z,96913.84
2023-11-07T19:52:03.589Z,96918.97
2023-11-07T19:54:32.157Z,96929.84
2023-11-07T19:57:01.448Z,96928.03
2023-11-07T19:59:29.771Z,96927.53
2023-11-07T20:02:00.091Z,96929.31
2023-11-07T20:04:28.723Z,96937.78
2023-11-07T20:06:57.229Z,96932.34
2023-11-07T20:09:25.634Z,96927.28
2023-11-07T20:11:54.017Z,96932.00
2023-11-07T20:14:23.107Z,96930.47
2023-11-07T20:16:55.449Z,96938.69
2023-11-07T20:19:26.405Z,96943.47
2023-11-07T20:21:54.773Z,96945.38
2023-11-07T20:24:23.125Z,96942.25
2023-11-07T20:26:51.453Z,96943.44
2023-11-07T20:29:22.066Z,96952.94
2023-11-07T20:31:51.800Z,96951.66
2023-11-07T20:34:20.326Z,96956.03
2023-11-07T20:36:50.122Z,96960.16
2023-11-07T20:39:19.735Z,96951.19
2023-11-07T20:41:48.222Z,96961.03
2023-11-07T20:44:17.067Z,96954.84
2023-11-07T20:46:45.757Z,96965.41
2023-11-07T20:49:14.326Z,96961.59
2023-11-07T20:51:42.993Z,96966.81
2023-11-07T20:54:13.250Z,96969.53
2023-11-07T20:56:41.566Z,96975.81
2023-11-07T20:59:13.211Z,96971.41
2023-11-07T21:01:44.456Z,96970.19
2023-11-07T21:04:13.285Z,96964.75
2023-11-07T21:06:41.628Z,96970.53
2023-11-07T21:09:10.040Z,96967.25
2023-11-07T21:11:43.357Z,96970.03
2023-11-07T21:14:11.794Z,96974.72
2023-11-07T21:16:40.158Z,96979.13
2023-11-07T21:19:11.891Z,96979.19
2023-11-07T21:21:40.286Z,96976.47
2023-11-07T21:24:09.218Z,96979.91
2023-11-07T21:26:38.911Z,96975.25
2023-11-07T21:29:08.317Z,96977.41
2023-11-07T21:31:37.398Z,96982.84
2023-11-07T21:34:07.768Z,96977.50
2023-11-07T21:36:36.304Z,96970.47
2023-11-07T21:39:07.654Z,96975.06
2023-11-07T21:41:36.137Z,96988.88
2023-11-07T21:44:06.149Z,96976.63
2023-11-07T21:46:35.024Z,96989.09
2023-11-07T21:49:03.601Z,96993.19
2023-11-07T21:51:32.842Z,97002.66
2023-11-07T21:54:03.227Z,96993.41
2023-11-07T21:56:32.663Z,96996.94
2023-11-07T21:59:01.801Z,97000.75
2023-11-07T22:01:34.357Z,96997.00
2023-11-07T22:04:02.924Z,96992.25
2023-11-07T22:06:32.738Z,97002.47
2023-11-07T22:09:01.226Z,96993.41
2023-11-07T22:11:29.517Z,96999.97
2023-11-07T22:13:58.256Z,96996.97
2023-11-07T22:16:27.661Z,97002.91
2023-11-07T22:18:57.435Z,96997.47
2023-11-07T22:21:26.704Z,97006.38
2023-11-07T22:23:55.142Z,97006.88
2023-11-07T22:26:23.548Z,97013.66
2023-11-07T22:28:52.233Z,97006.94
2023-11-07T22:31:21.224Z,97012.25
2023-11-07T22:33:49.820Z,97008.78
2023-11-07T22:36:19.706Z,97012.94
2023-11-07T22:38:48.590Z,97008.78
2023-11-07T22:41:17.497Z,97011.16
2023-11-07T22:43:45.922Z,97012.31
2023-11-07T22:46:14.248Z,97018.59
2023-11-07T22:48:44.717Z,97025.09
2023-11-07T22:51:13.139Z,97026.44
2023-11-07T22:53:43.092Z,97026.50
2023-11-07T22:56:12.133Z,97030.50
2023-11-07T22:58:40.602Z,97035.63
2023-11-07T23:01:09.817Z,97023.44
2023-11-07T23:03:39.674Z,97029.94
2023-11-07T23:06:09.213Z,97028.66
2023-11-07T23:08:39.200Z,97035.44
2023-11-07T23:11:09.491Z,97036.59
2023-11-07T23:13:38.399Z,97035.72
2023-11-07T23:16:08.414Z,97037.63
2023-11-07T23:18:37.234Z,97038.22
2023-11-07T23:21:06.664Z,97045.56
2023-11-07T23:23:35.993Z,97042.56
2023-11-07T23:26:05.064Z,97036.78
2023-11-07T23:28:34.910Z,97036.00
2023-11-07T23:31:03.790Z,97032.22
2023-11-07T23:33:32.340Z,97034.34
2023-11-07T23:36:01.414Z,97045.47
2023-11-07T23:38:29.738Z,97040.63
2023-11-07T23:40:58.334Z,97039.78
2023-11-07T23:43:28.006Z,97044.34
2023-11-07T23:45:57.981Z,97039.28
2023-11-07T23:48:27.724Z,97036.44
2023-11-07T23:50:56.455Z,97038.09
2023-11-07T23:53:25.278Z,97037.28
2023-11-07T23:55:53.808Z,97034.94
2023-11-07T23:58:22.536Z,97041.78
